| time (UTC) | temp C | wind direction | speed KPH | gust KPH | rain 1hr cm | rain 24hr cm | rain mn cm | humidity % | barometer mb |
| 20260906230113 | 37 | 122 | 6.4 | 11.3 | 0.00 | 0.00 | 0.00 | 40 | 1011.2 |
| 20260906225612 | 37 | 53 | 3.2 | 3.2 | 0.00 | 0.00 | 0.00 | 40 | 1011.3 |
| 20260906225108 | 37 | 269 | 0.0 | 4.8 | 0.00 | 0.00 | 0.00 | 41 | 1011.2 |
| 20260906224603 | 36 | 102 | 6.4 | 9.7 | 0.00 | 0.00 | 0.00 | 40 | 1011.4 |
| 20260906224100 | 37 | 98 | 6.4 | 9.7 | 0.00 | 0.00 | 0.00 | 40 | 1011.3 |
| 20260906223555 | 37 | 240 | 1.6 | 6.4 | 0.00 | 0.00 | 0.00 | 40 | 1011.4 |
| 20260906223055 | 37 | 152 | 3.2 | 8.0 | 0.00 | 0.00 | 0.00 | 40 | 1011.5 |
| 20260906222554 | 37 | 95 | 6.4 | 9.7 | 0.00 | 0.00 | 0.00 | 40 | 1011.2 |
| 20260906222052 | 36 | 103 | 1.6 | 8.0 | 0.00 | 0.00 | 0.00 | 42 | 1011.6 |
| 20260906221550 | 37 | 8 | 4.8 | 9.7 | 0.00 | 0.00 | 0.00 | 40 | 1011.4 |
| 20260906221046 | 37 | 256 | 0.0 | 4.8 | 0.00 | 0.00 | 0.00 | 40 | 1011.4 |
| 20260906220541 | 36 | 235 | 0.0 | 12.9 | 0.00 | 0.00 | 0.00 | 42 | 1011.6 |
| 20260906220037 | 36 | 87 | 8.0 | 17.7 | 0.00 | 0.00 | 0.00 | 42 | 1011.4 |
| 20260906215535 | 36 | 257 | 3.2 | 9.7 | 0.00 | 0.00 | 0.00 | 42 | 1011.2 |
| 20260906215034 | 36 | 38 | 1.6 | 6.4 | 0.00 | 0.00 | 0.00 | 43 | 1011.3 |
| 20260906214532 | 36 | 68 | 6.4 | 22.5 | 0.00 | 0.00 | 0.00 | 42 | 1011.4 |
| 20260906214027 | 38 | 68 | 6.4 | 8.0 | 0.00 | 0.00 | 0.00 | 41 | 1011.3 |
| 20260906213527 | 38 | 101 | 4.8 | 8.0 | 0.00 | 0.00 | 0.00 | 41 | 1011.6 |
| 20260906213021 | 38 | 221 | 4.8 | 6.4 | 0.00 | 0.00 | 0.00 | 40 | 1011.5 |
| 20260906212515 | 37 | 214 | 3.2 | 4.8 | 0.00 | 0.00 | 0.00 | 41 | 1011.7 |
| 20260906212010 | 37 | 81 | 9.7 | 14.5 | 0.00 | 0.00 | 0.00 | 42 | 1011.7 |
| 20260906211509 | 38 | 342 | 3.2 | 3.2 | 0.00 | 0.00 | 0.00 | 39 | 1011.8 |
| 20260906211005 | 37 | 357 | 4.8 | 8.0 | 0.00 | 0.00 | 0.00 | 39 | 1011.9 |
| 20260906210455 | 37 | 118 | 6.4 | 6.4 | 0.00 | 0.00 | 0.00 | 39 | 1012.0 |
| 20260906205954 | 37 | 3 | 3.2 | 8.0 | 0.00 | 0.00 | 0.00 | 41 | 1012.0 |
| 20260906205449 | 37 | 124 | 4.8 | 11.3 | 0.00 | 0.00 | 0.00 | 41 | 1012.0 |
| 20260906204946 | 37 | 49 | 12.9 | 16.1 | 0.00 | 0.00 | 0.00 | 40 | 1012.0 |
| 20260906204445 | 37 | 199 | 3.2 | 9.7 | 0.00 | 0.00 | 0.00 | 40 | 1012.3 |
| 20260906203944 | 36 | 113 | 4.8 | 12.9 | 0.00 | 0.00 | 0.00 | 43 | 1012.5 |
| 20260906203439 | 36 | 108 | 3.2 | 9.7 | 0.00 | 0.00 | 0.00 | 43 | 1012.5 |
| 20260906202937 | 36 | 97 | 6.4 | 11.3 | 0.00 | 0.00 | 0.00 | 44 | 1012.7 |
| 20260906202436 | 36 | 60 | 14.5 | 24.1 | 0.00 | 0.00 | 0.00 | 44 | 1012.6 |
| 20260906201931 | 36 | 47 | 1.6 | 9.7 | 0.00 | 0.00 | 0.00 | 44 | 1012.8 |
| 20260906201426 | 36 | 60 | 9.7 | 17.7 | 0.00 | 0.00 | 0.00 | 44 | 1012.7 |
| 20260906200921 | 37 | 180 | 3.2 | 11.3 | 0.00 | 0.00 | 0.00 | 43 | 1012.9 |
| 20260906200418 | 37 | 153 | 6.4 | 6.4 | 0.00 | 0.00 | 0.00 | 43 | 1012.9 |
| 20260906195917 | 36 | 112 | 3.2 | 9.7 | 0.00 | 0.00 | 0.00 | 44 | 1012.8 |
| 20260906195414 | 37 | 83 | 4.8 | 6.4 | 0.00 | 0.00 | 0.00 | 44 | 1012.9 |
| 20260906194909 | 36 | 82 | 11.3 | 19.3 | 0.00 | 0.00 | 0.00 | 45 | 1013.2 |
| 20260906194405 | 36 | 55 | 6.4 | 24.1 | 0.00 | 0.00 | 0.00 | 45 | 1013.1 |
| 20260906193900 | 36 | 226 | 4.8 | 4.8 | 0.00 | 0.00 | 0.00 | 43 | 1013.0 |
| 20260906193355 | 36 | 127 | 6.4 | 11.3 | 0.00 | 0.00 | 0.00 | 45 | 1013.2 |
| 20260906192851 | 36 | 162 | 3.2 | 6.4 | 0.00 | 0.00 | 0.00 | 45 | 1013.1 |
| 20260906192345 | 37 | 16 | 4.8 | 8.0 | 0.00 | 0.00 | 0.00 | 44 | 1013.2 |
| 20260906191844 | 37 | 331 | 3.2 | 6.4 | 0.00 | 0.00 | 0.00 | 45 | 1013.4 |
| 20260906191338 | 36 | 324 | 1.6 | 14.5 | 0.00 | 0.00 | 0.00 | 47 | 1013.5 |
| 20260906190833 | 36 | 39 | 6.4 | 9.7 | 0.00 | 0.00 | 0.00 | 46 | 1013.4 |
| 20260906190333 | 35 | 136 | 3.2 | 6.4 | 0.00 | 0.00 | 0.00 | 47 | 1013.4 |
| 20260906185833 | 36 | 59 | 12.9 | 17.7 | 0.00 | 0.00 | 0.00 | 47 | 1013.4 |
| 20260906185331 | 36 | 178 | 6.4 | 16.1 | 0.00 | 0.00 | 0.00 | 47 | 1013.6 |
| 20260906184827 | 36 | 110 | 6.4 | 8.0 | 0.00 | 0.00 | 0.00 | 46 | 1013.5 |
| 20260906184327 | 36 | 108 | 6.4 | 9.7 | 0.00 | 0.00 | 0.00 | 46 | 1013.7 |
| 20260906183822 | 36 | 146 | 3.2 | 9.7 | 0.00 | 0.00 | 0.00 | 47 | 1013.6 |
| 20260906183319 | 36 | 117 | 3.2 | 8.0 | 0.00 | 0.00 | 0.00 | 47 | 1013.5 |
| 20260906182819 | 36 | 121 | 3.2 | 9.7 | 0.00 | 0.00 | 0.00 | 47 | 1013.8 |
| 20260906182314 | 36 | 102 | 8.0 | 17.7 | 0.00 | 0.00 | 0.00 | 48 | 1014.2 |
| 20260906181814 | 35 | 107 | 4.8 | 12.9 | 0.00 | 0.00 | 0.00 | 49 | 1014.0 |
| 20260906181311 | 35 | 65 | 9.7 | 14.5 | 0.00 | 0.00 | 0.00 | 49 | 1013.9 |
| 20260906180806 | 35 | 55 | 17.7 | 20.9 | 0.00 | 0.00 | 0.00 | 50 | 1014.0 |
| 20260906180301 | 35 | 79 | 6.4 | 17.7 | 0.00 | 0.00 | 0.00 | 50 | 1014.2 |
| 20260906175758 | 35 | 133 | 1.6 | 6.4 | 0.00 | 0.00 | 0.00 | 49 | 1014.1 |
| 20260906175254 | 35 | 160 | 3.2 | 11.3 | 0.00 | 0.00 | 0.00 | 48 | 1014.3 |
| 20260906174752 | 35 | 83 | 11.3 | 16.1 | 0.00 | 0.00 | 0.00 | 49 | 1014.3 |
| 20260906174252 | 35 | 91 | 4.8 | 8.0 | 0.00 | 0.00 | 0.00 | 50 | 1014.3 |
| 20260906173747 | 35 | 220 | 1.6 | 9.7 | 0.00 | 0.00 | 0.00 | 51 | 1014.6 |
| 20260906173243 | 35 | 81 | 6.4 | 14.5 | 0.00 | 0.00 | 0.00 | 50 | 1014.6 |
| 20260906172742 | 34 | 41 | 6.4 | 8.0 | 0.00 | 0.00 | 0.00 | 52 | 1014.8 |
| 20260906172237 | 35 | 14 | 3.2 | 9.7 | 0.00 | 0.00 | 0.00 | 51 | 1014.7 |
| 20260906171732 | 34 | 51 | 6.4 | 6.4 | 0.00 | 0.00 | 0.00 | 52 | 1014.8 |
| 20260906171228 | 33 | 94 | 3.2 | 9.7 | 0.00 | 0.00 | 0.00 | 52 | 1014.9 |
| 20260906170723 | 34 | 181 | 3.2 | 6.4 | 0.00 | 0.00 | 0.00 | 52 | 1015.0 |
| 20260906170218 | 33 | 80 | 3.2 | 16.1 | 0.00 | 0.00 | 0.00 | 54 | 1015.0 |
| 20260906165715 | 34 | 82 | 4.8 | 14.5 | 0.00 | 0.00 | 0.00 | 54 | 1015.0 |
| 20260906165209 | 34 | 161 | 3.2 | 14.5 | 0.00 | 0.00 | 0.00 | 51 | 1015.0 |
| 20260906164708 | 35 | 100 | 3.2 | 8.0 | 0.00 | 0.00 | 0.00 | 52 | 1015.2 |
| 20260906164204 | 35 | 247 | 3.2 | 4.8 | 0.00 | 0.00 | 0.00 | 51 | 1015.0 |
| 20260906163700 | 35 | 32 | 3.2 | 6.4 | 0.00 | 0.00 | 0.00 | 54 | 1015.2 |
| 20260906163156 | 33 | 242 | 3.2 | 6.4 | 0.00 | 0.00 | 0.00 | 54 | 1015.2 |
| 20260906162652 | 33 | 122 | 3.2 | 9.7 | 0.00 | 0.00 | 0.00 | 55 | 1015.3 |
| 20260906162152 | 33 | 109 | 3.2 | 9.7 | 0.00 | 0.00 | 0.00 | 55 | 1015.0 |
| 20260906161647 | 33 | 185 | 3.2 | 9.7 | 0.00 | 0.00 | 0.00 | 56 | 1015.0 |
| 20260906161146 | 33 | 134 | 3.2 | 9.7 | 0.00 | 0.00 | 0.00 | 57 | 1014.8 |
| 20260906160645 | 33 | 121 | 4.8 | 6.4 | 0.00 | 0.00 | 0.00 | 58 | 1015.1 |
| 20260906160144 | 32 | 52 | 8.0 | 14.5 | 0.00 | 0.00 | 0.00 | 59 | 1014.8 |
| 20260906155642 | 33 | 73 | 4.8 | 8.0 | 0.00 | 0.00 | 0.00 | 57 | 1015.0 |
| 20260906155138 | 32 | 68 | 6.4 | 12.9 | 0.00 | 0.00 | 0.00 | 60 | 1015.1 |
| 20260906154633 | 33 | 92 | 3.2 | 8.0 | 0.00 | 0.00 | 0.00 | 60 | 1014.9 |
| 20260906154133 | 32 | 195 | 0.0 | 6.4 | 0.00 | 0.00 | 0.00 | 63 | 1014.8 |
| 20260906153631 | 32 | 93 | 0.0 | 8.0 | 0.00 | 0.00 | 0.00 | 64 | 1014.9 |
| 20260906153126 | 32 | 68 | 3.2 | 4.8 | 0.00 | 0.00 | 0.00 | 63 | 1014.8 |
| 20260906152621 | 33 | 57 | 0.0 | 3.2 | 0.00 | 0.00 | 0.00 | 62 | 1014.7 |
| 20260906152121 | 32 | 162 | 3.2 | 4.8 | 0.00 | 0.00 | 0.00 | 64 | 1014.9 |
| 20260906151615 | 31 | 54 | 3.2 | 8.0 | 0.00 | 0.00 | 0.00 | 67 | 1014.7 |
| 20260906151112 | 31 | 75 | 3.2 | 6.4 | 0.00 | 0.00 | 0.00 | 68 | 1014.7 |
| 20260906150607 | 32 | 96 | 0.0 | 4.8 | 0.00 | 0.00 | 0.00 | 67 | 1014.9 |
| 20260906145601 | 32 | 34 | 4.8 | 6.4 | 0.00 | 0.00 | 0.00 | 67 | 1014.6 |
| 20260906145056 | 31 | 55 | 3.2 | 4.8 | 0.00 | 0.00 | 0.00 | 69 | 1014.7 |
| 20260906144550 | 31 | 342 | 1.6 | 4.8 | 0.00 | 0.00 | 0.00 | 70 | 1014.5 |
| 20260906144045 | 31 | 37 | 6.4 | 6.4 | 0.00 | 0.00 | 0.00 | 70 | 1014.8 |
| 20260906143540 | 31 | 89 | 3.2 | 3.2 | 0.00 | 0.00 | 0.00 | 70 | 1014.8 |
| 20260906143037 | 30 | 113 | 1.6 | 6.4 | 0.00 | 0.00 | 0.00 | 71 | 1014.8 |
| 20260906142530 | 31 | 114 | 4.8 | 4.8 | 0.00 | 0.00 | 0.00 | 70 | 1014.8 |
| 20260906142026 | 31 | 68 | 3.2 | 4.8 | 0.00 | 0.00 | 0.00 | 70 | 1014.9 |
| 20260906141526 | 31 | 58 | 1.6 | 3.2 | 0.00 | 0.00 | 0.00 | 71 | 1014.9 |
| 20260906141021 | 30 | 96 | 1.6 | 3.2 | 0.00 | 0.00 | 0.00 | 72 | 1014.8 |
| 20260906140520 | 30 | 46 | 3.2 | 4.8 | 0.00 | 0.00 | 0.00 | 73 | 1014.6 |
| 20260906140019 | 30 | 113 | 0.0 | 3.2 | 0.00 | 0.00 | 0.00 | 74 | 1015.0 |
| 20260906135516 | 30 | 77 | 4.8 | 4.8 | 0.00 | 0.00 | 0.00 | 74 | 1014.6 |
| 20260906135013 | 29 | 25 | 1.6 | 4.8 | 0.00 | 0.00 | 0.00 | 77 | 1014.6 |
| 20260906134508 | 29 | 30 | 1.6 | 4.8 | 0.00 | 0.00 | 0.00 | 75 | 1014.6 |
| 20260906134008 | 28 | 104 | 3.2 | 3.2 | 0.00 | 0.00 | 0.00 | 78 | 1014.8 |
| 20260906133504 | 28 | 101 | 1.6 | 4.8 | 0.00 | 0.00 | 0.00 | 79 | 1014.5 |
| 20260906132959 | 28 | 53 | 1.6 | 3.2 | 0.00 | 0.00 | 0.00 | 80 | 1014.7 |
| 20260906132454 | 28 | 97 | 3.2 | 3.2 | 0.00 | 0.00 | 0.00 | 79 | 1014.6 |
| 20260906131949 | 28 | 51 | 3.2 | 6.4 | 0.00 | 0.00 | 0.00 | 79 | 1014.9 |
| 20260906131445 | 28 | 37 | 3.2 | 4.8 | 0.00 | 0.00 | 0.00 | 80 | 1014.7 |
| 20260906130940 | 28 | 44 | 0.0 | 3.2 | 0.00 | 0.00 | 0.00 | 81 | 1014.8 |
| 20260906130439 | 27 | 111 | 0.0 | 3.2 | 0.00 | 0.00 | 0.00 | 82 | 1014.6 |
| 20260906125934 | 27 | 68 | 4.8 | 4.8 | 0.00 | 0.00 | 0.00 | 82 | 1014.6 |
| 20260906125432 | 27 | 106 | 1.6 | 3.2 | 0.00 | 0.00 | 0.00 | 83 | 1014.5 |
| 20260906124931 | 26 | 57 | 3.2 | 3.2 | 0.00 | 0.00 | 0.00 | 85 | 1014.4 |
| 20260906124428 | 26 | 55 | 3.2 | 4.8 | 0.00 | 0.00 | 0.00 | 85 | 1014.3 |
| 20260906123927 | 26 | 48 | 3.2 | 4.8 | 0.00 | 0.00 | 0.00 | 86 | 1014.7 |
| 20260906123426 | 26 | 51 | 1.6 | 3.2 | 0.00 | 0.00 | 0.00 | 86 | 1014.5 |
| 20260906122921 | 26 | 53 | 0.0 | 1.6 | 0.00 | 0.00 | 0.00 | 87 | 1014.3 |
| 20260906122416 | 25 | 54 | 0.0 | 1.6 | 0.00 | 0.00 | 0.00 | 89 | 1014.4 |
| 20260906121913 | 25 | 44 | 1.6 | 3.2 | 0.00 | 0.00 | 0.00 | 89 | 1014.3 |
| 20260906121409 | 25 | 39 | 1.6 | 3.2 | 0.00 | 0.00 | 0.00 | 89 | 1014.2 |
| 20260906120905 | 25 | 78 | 0.0 | 3.2 | 0.00 | 0.00 | 0.00 | 89 | 1014.1 |
| 20260906120400 | 25 | 63 | 1.6 | 3.2 | 0.00 | 0.00 | 0.00 | 89 | 1014.2 |
| 20260906115856 | 25 | 80 | 0.0 | 3.2 | 0.00 | 0.00 | 0.00 | 89 | 1014.1 |
| 20260906115351 | 25 | 120 | 3.2 | 3.2 | 0.00 | 0.00 | 0.00 | 89 | 1013.9 |
| 20260906114850 | 25 | 117 | 0.0 | 3.2 | 0.00 | 0.00 | 0.00 | 89 | 1014.1 |
| 20260906114346 | 25 | 38 | 1.6 | 3.2 | 0.00 | 0.00 | 0.00 | 88 | 1013.8 |
| 20260906113841 | 25 | 67 | 1.6 | 1.6 | 0.00 | 0.00 | 0.00 | 88 | 1014.0 |
| 20260906113340 | 25 | 48 | 1.6 | 3.2 | 0.00 | 0.00 | 0.00 | 88 | 1014.0 |
| 20260906112835 | 25 | 62 | 0.0 | 1.6 | 0.00 | 0.00 | 0.00 | 88 | 1013.8 |
| 20260906112332 | 25 | 38 | 0.0 | 3.2 | 0.00 | 0.00 | 0.00 | 88 | 1013.7 |
| 20260906111826 | 25 | 62 | 0.0 | 3.2 | 0.00 | 0.00 | 0.00 | 87 | 1013.8 |
| 20260906111326 | 25 | 62 | 0.0 | 3.2 | 0.00 | 0.00 | 0.00 | 87 | 1013.8 |
| 20260906110821 | 25 | 23 | 0.0 | 3.2 | 0.00 | 0.00 | 0.00 | 87 | 1013.8 |
| 20260906110317 | 25 | 32 | 0.0 | 3.2 | 0.00 | 0.00 | 0.00 | 87 | 1013.8 |
| 20260906105815 | 25 | 29 | 0.0 | 1.6 | 0.00 | 0.00 | 0.00 | 87 | 1013.7 |
| 20260906105311 | 25 | 13 | 0.0 | 1.6 | 0.00 | 0.00 | 0.00 | 87 | 1013.4 |
| 20260906104807 | 25 | 58 | 0.0 | 1.6 | 0.00 | 0.00 | 0.00 | 86 | 1013.6 |
| 20260906104259 | 25 | 55 | 0.0 | 3.2 | 0.00 | 0.00 | 0.00 | 86 | 1013.6 |
| 20260906103758 | 25 | 49 | 0.0 | 1.6 | 0.00 | 0.00 | 0.00 | 86 | 1013.5 |
| 20260906103257 | 26 | 69 | 0.0 | 1.6 | 0.00 | 0.00 | 0.00 | 86 | 1013.5 |
| 20260906102753 | 26 | 108 | 3.2 | 3.2 | 0.00 | 0.00 | 0.00 | 85 | 1013.6 |
| 20260906102251 | 26 | 71 | 1.6 | 3.2 | 0.00 | 0.00 | 0.00 | 85 | 1013.5 |
| 20260906101747 | 26 | 45 | 1.6 | 3.2 | 0.00 | 0.00 | 0.00 | 85 | 1013.5 |
| 20260906101242 | 26 | 101 | 0.0 | 3.2 | 0.00 | 0.00 | 0.00 | 85 | 1013.4 |
| 20260906100737 | 26 | 65 | 0.0 | 0.0 | 0.00 | 0.00 | 0.00 | 85 | 1013.5 |
| 20260906100237 | 26 | 13 | 0.0 | 1.6 | 0.00 | 0.00 | 0.00 | 85 | 1013.5 |
| 20260906095733 | 26 | 32 | 0.0 | 0.0 | 0.00 | 0.00 | 0.00 | 85 | 1013.4 |
| 20260906095227 | 26 | 306 | 0.0 | 0.0 | 0.00 | 0.00 | 0.00 | 85 | 1013.3 |
| 20260906094726 | 26 | 304 | 0.0 | 3.2 | 0.00 | 0.00 | 0.00 | 85 | 1013.3 |
| 20260906094222 | 26 | 356 | 0.0 | 1.6 | 0.00 | 0.00 | 0.00 | 84 | 1013.3 |
| 20260906093718 | 26 | 294 | 0.0 | 1.6 | 0.00 | 0.00 | 0.00 | 83 | 1013.0 |
| 20260906093213 | 26 | 293 | 0.0 | 0.0 | 0.00 | 0.00 | 0.00 | 83 | 1013.1 |
| 20260906092709 | 26 | 339 | 0.0 | 1.6 | 0.00 | 0.00 | 0.00 | 83 | 1012.9 |
| 20260906092208 | 26 | 312 | 0.0 | 1.6 | 0.00 | 0.00 | 0.00 | 83 | 1012.9 |
| 20260906091704 | 26 | 62 | 0.0 | 1.6 | 0.00 | 0.00 | 0.00 | 82 | 1012.9 |
| 20260906091200 | 26 | 217 | 1.6 | 3.2 | 0.00 | 0.00 | 0.00 | 81 | 1013.0 |
| 20260906090657 | 27 | 282 | 0.0 | 1.6 | 0.00 | 0.00 | 0.00 | 81 | 1012.9 |
| 20260906090156 | 27 | 284 | 0.0 | 0.0 | 0.00 | 0.00 | 0.00 | 81 | 1012.9 |
| 20260906085655 | 27 | 284 | 0.0 | 1.6 | 0.00 | 0.00 | 0.00 | 81 | 1013.0 |
| 20260906085154 | 27 | 297 | 0.0 | 1.6 | 0.00 | 0.00 | 0.00 | 81 | 1012.9 |
| 20260906084649 | 27 | 89 | 0.0 | 3.2 | 0.00 | 0.00 | 0.00 | 80 | 1013.0 |
| 20260906084148 | 27 | 284 | 0.0 | 1.6 | 0.00 | 0.00 | 0.00 | 80 | 1012.7 |
| 20260906083643 | 27 | 156 | 3.2 | 3.2 | 0.00 | 0.00 | 0.00 | 80 | 1012.8 |
| 20260906083139 | 27 | 235 | 0.0 | 4.8 | 0.00 | 0.00 | 0.00 | 79 | 1012.7 |
| 20260906082634 | 27 | 180 | 0.0 | 4.8 | 0.00 | 0.00 | 0.00 | 79 | 1012.6 |
| 20260906082129 | 27 | 161 | 1.6 | 3.2 | 0.00 | 0.00 | 0.00 | 79 | 1012.9 |
| 20260906081626 | 27 | 135 | 0.0 | 3.2 | 0.00 | 0.00 | 0.00 | 79 | 1012.8 |
| 20260906081120 | 27 | 124 | 0.0 | 3.2 | 0.00 | 0.00 | 0.00 | 79 | 1012.7 |
| 20260906080617 | 27 | 234 | 3.2 | 3.2 | 0.00 | 0.00 | 0.00 | 78 | 1013.0 |
| 20260906080113 | 27 | 149 | 0.0 | 4.8 | 0.00 | 0.00 | 0.00 | 78 | 1012.8 |
| 20260906075612 | 27 | 177 | 0.0 | 3.2 | 0.00 | 0.00 | 0.00 | 78 | 1012.9 |
| 20260906075107 | 27 | 224 | 0.0 | 3.2 | 0.00 | 0.00 | 0.00 | 78 | 1013.1 |
| 20260906074602 | 27 | 131 | 0.0 | 3.2 | 0.00 | 0.00 | 0.00 | 78 | 1013.0 |
| 20260906074101 | 27 | 144 | 3.2 | 3.2 | 0.00 | 0.00 | 0.00 | 77 | 1012.9 |
| 20260906073556 | 27 | 142 | 0.0 | 3.2 | 0.00 | 0.00 | 0.00 | 77 | 1013.0 |
| 20260906073046 | 27 | 157 | 0.0 | 3.2 | 0.00 | 0.00 | 0.00 | 77 | 1013.0 |
| 20260906072540 | 27 | 135 | 0.0 | 3.2 | 0.00 | 0.00 | 0.00 | 77 | 1012.8 |
| 20260906072037 | 27 | 189 | 1.6 | 3.2 | 0.00 | 0.00 | 0.00 | 76 | 1012.7 |
| 20260906071533 | 28 | 227 | 3.2 | 3.2 | 0.00 | 0.00 | 0.00 | 76 | 1013.0 |
| 20260906071028 | 28 | 239 | 4.8 | 4.8 | 0.00 | 0.00 | 0.00 | 76 | 1012.9 |
| 20260906070524 | 28 | 198 | 3.2 | 4.8 | 0.00 | 0.00 | 0.00 | 75 | 1013.1 |
| 20260906070020 | 28 | 184 | 0.0 | 3.2 | 0.00 | 0.00 | 0.00 | 74 | 1013.4 |
| 20260906065519 | 28 | 38 | 1.6 | 1.6 | 0.00 | 0.00 | 0.00 | 74 | 1013.2 |
| 20260906065010 | 28 | 219 | 0.0 | 3.2 | 0.00 | 0.00 | 0.00 | 73 | 1013.1 |
| 20260906064505 | 28 | 146 | 1.6 | 3.2 | 0.00 | 0.00 | 0.00 | 73 | 1013.1 |
| 20260906064000 | 28 | 141 | 3.2 | 3.2 | 0.00 | 0.00 | 0.00 | 72 | 1013.1 |
| 20260906063455 | 28 | 148 | 3.2 | 3.2 | 0.00 | 0.00 | 0.00 | 72 | 1013.1 |
| 20260906062949 | 28 | 163 | 3.2 | 3.2 | 0.00 | 0.00 | 0.00 | 72 | 1013.2 |
| 20260906062444 | 28 | 191 | 3.2 | 3.2 | 0.00 | 0.00 | 0.00 | 71 | 1013.3 |
| 20260906061939 | 28 | 134 | 0.0 | 1.6 | 0.00 | 0.00 | 0.00 | 71 | 1013.1 |
| 20260906061435 | 28 | 124 | 0.0 | 1.6 | 0.00 | 0.00 | 0.00 | 70 | 1013.4 |
| 20260906060929 | 28 | 130 | 0.0 | 1.6 | 0.00 | 0.00 | 0.00 | 69 | 1013.4 |
| 20260906060427 | 28 | 99 | 0.0 | 4.8 | 0.00 | 0.00 | 0.00 | 69 | 1013.2 |
| 20260906055923 | 28 | 157 | 1.6 | 3.2 | 0.00 | 0.00 | 0.00 | 68 | 1013.2 |
| 20260906055418 | 28 | 237 | 0.0 | 3.2 | 0.00 | 0.00 | 0.00 | 68 | 1013.2 |
| 20260906054914 | 28 | 62 | 0.0 | 4.8 | 0.00 | 0.00 | 0.00 | 68 | 1013.1 |
| 20260906054408 | 28 | 106 | 0.0 | 4.8 | 0.00 | 0.00 | 0.00 | 68 | 1013.3 |
| 20260906053904 | 29 | 215 | 3.2 | 3.2 | 0.00 | 0.00 | 0.00 | 67 | 1013.1 |
| 20260906053400 | 29 | 101 | 0.0 | 4.8 | 0.00 | 0.00 | 0.00 | 67 | 1013.2 |
| 20260906052855 | 29 | 202 | 0.0 | 1.6 | 0.00 | 0.00 | 0.00 | 67 | 1013.2 |
| 20260906052352 | 29 | 153 | 1.6 | 4.8 | 0.00 | 0.00 | 0.00 | 67 | 1013.0 |
| 20260906051849 | 29 | 99 | 0.0 | 9.7 | 0.00 | 0.00 | 0.00 | 66 | 1013.0 |
| 20260906051348 | 29 | 204 | 1.6 | 6.4 | 0.00 | 0.00 | 0.00 | 67 | 1013.0 |
| 20260906050844 | 29 | 210 | 1.6 | 3.2 | 0.00 | 0.00 | 0.00 | 68 | 1013.0 |
| 20260906050333 | 29 | 273 | 0.0 | 3.2 | 0.00 | 0.00 | 0.00 | 67 | 1013.3 |
| 20260906045832 | 29 | 200 | 0.0 | 0.0 | 0.00 | 0.00 | 0.00 | 68 | 1013.1 |
| 20260906045326 | 30 | 238 | 0.0 | 1.6 | 0.00 | 0.00 | 0.00 | 67 | 1013.1 |
| 20260906044823 | 30 | 236 | 0.0 | 4.8 | 0.00 | 0.00 | 0.00 | 67 | 1013.1 |
| 20260906044317 | 30 | 159 | 1.6 | 3.2 | 0.00 | 0.00 | 0.00 | 66 | 1013.1 |
| 20260906043813 | 30 | 242 | 0.0 | 3.2 | 0.00 | 0.00 | 0.00 | 67 | 1013.2 |
| 20260906043309 | 30 | 280 | 0.0 | 4.8 | 0.00 | 0.00 | 0.00 | 67 | 1013.2 |
| 20260906042809 | 30 | 326 | 3.2 | 3.2 | 0.00 | 0.00 | 0.00 | 67 | 1012.9 |
| 20260906042308 | 30 | 191 | 1.6 | 6.4 | 0.00 | 0.00 | 0.00 | 66 | 1013.3 |
| 20260906041804 | 30 | 200 | 3.2 | 4.8 | 0.00 | 0.00 | 0.00 | 66 | 1013.2 |
| 20260906041259 | 30 | 194 | 1.6 | 3.2 | 0.00 | 0.00 | 0.00 | 66 | 1013.3 |
| 20260906040754 | 30 | 160 | 0.0 | 3.2 | 0.00 | 0.00 | 0.00 | 65 | 1013.2 |
| 20260906040249 | 30 | 169 | 0.0 | 3.2 | 0.00 | 0.00 | 0.00 | 65 | 1013.0 |
| 20260906035744 | 30 | 166 | 0.0 | 3.2 | 0.00 | 0.00 | 0.00 | 65 | 1013.1 |
| 20260906035240 | 30 | 175 | 1.6 | 4.8 | 0.00 | 0.00 | 0.00 | 65 | 1013.1 |
| 20260906034740 | 30 | 180 | 0.0 | 3.2 | 0.00 | 0.00 | 0.00 | 65 | 1013.1 |
| 20260906034235 | 30 | 165 | 1.6 | 3.2 | 0.00 | 0.00 | 0.00 | 65 | 1013.1 |
| 20260906033731 | 30 | 106 | 0.0 | 4.8 | 0.00 | 0.00 | 0.00 | 65 | 1013.2 |
| 20260906033230 | 30 | 199 | 3.2 | 3.2 | 0.00 | 0.00 | 0.00 | 65 | 1013.1 |
| 20260906032727 | 30 | 123 | 0.0 | 3.2 | 0.00 | 0.00 | 0.00 | 65 | 1013.1 |
| 20260906032227 | 30 | 281 | 0.0 | 0.0 | 0.00 | 0.00 | 0.00 | 65 | 1013.2 |
| 20260906031722 | 30 | 187 | 0.0 | 1.6 | 0.00 | 0.00 | 0.00 | 64 | 1013.2 |
| 20260906031218 | 30 | 195 | 0.0 | 3.2 | 0.00 | 0.00 | 0.00 | 64 | 1013.2 |
| 20260906030717 | 30 | 184 | 1.6 | 3.2 | 0.00 | 0.00 | 0.00 | 64 | 1013.1 |
| 20260906030213 | 30 | 252 | 1.6 | 6.4 | 0.00 | 0.00 | 0.00 | 63 | 1013.1 |
| 20260906025712 | 30 | 186 | 1.6 | 4.8 | 0.00 | 0.00 | 0.00 | 62 | 1013.2 |
| 20260906025206 | 31 | 205 | 0.0 | 3.2 | 0.00 | 0.00 | 0.00 | 62 | 1013.2 |
| 20260906024700 | 31 | 221 | 0.0 | 3.2 | 0.00 | 0.00 | 0.00 | 62 | 1013.0 |
| 20260906024159 | 31 | 173 | 1.6 | 3.2 | 0.00 | 0.00 | 0.00 | 62 | 1013.1 |
| 20260906023656 | 31 | 120 | 1.6 | 4.8 | 0.00 | 0.00 | 0.00 | 61 | 1012.9 |
| 20260906023155 | 31 | 223 | 1.6 | 3.2 | 0.00 | 0.00 | 0.00 | 62 | 1012.7 |
| 20260906022650 | 31 | 208 | 1.6 | 4.8 | 0.00 | 0.00 | 0.00 | 61 | 1012.9 |
| 20260906022146 | 31 | 135 | 6.4 | 6.4 | 0.00 | 0.00 | 0.00 | 61 | 1012.8 |
| 20260906021642 | 31 | 130 | 3.2 | 4.8 | 0.00 | 0.00 | 0.00 | 61 | 1012.7 |
| 20260906021140 | 31 | 331 | 3.2 | 4.8 | 0.00 | 0.00 | 0.00 | 60 | 1012.3 |
| 20260906020635 | 31 | 100 | 4.8 | 4.8 | 0.00 | 0.00 | 0.00 | 61 | 1012.5 |
| 20260906020130 | 31 | 101 | 4.8 | 8.0 | 0.00 | 0.00 | 0.00 | 61 | 1012.4 |
| 20260906015624 | 31 | 17 | 1.6 | 3.2 | 0.00 | 0.00 | 0.00 | 61 | 1012.4 |
| 20260906015122 | 31 | 229 | 3.2 | 6.4 | 0.00 | 0.00 | 0.00 | 60 | 1012.3 |
| 20260906014617 | 31 | 260 | 0.0 | 6.4 | 0.00 | 0.00 | 0.00 | 60 | 1012.6 |
| 20260906014114 | 31 | 34 | 3.2 | 9.7 | 0.00 | 0.00 | 0.00 | 60 | 1012.3 |
| 20260906013609 | 31 | 109 | 9.7 | 9.7 | 0.00 | 0.00 | 0.00 | 59 | 1012.2 |
| 20260906013104 | 31 | 107 | 1.6 | 17.7 | 0.00 | 0.00 | 0.00 | 59 | 1012.0 |
| 20260906012559 | 32 | 65 | 4.8 | 4.8 | 0.00 | 0.00 | 0.00 | 57 | 1011.8 |
| 20260906012059 | 32 | 112 | 3.2 | 4.8 | 0.00 | 0.00 | 0.00 | 56 | 1011.8 |
| 20260906011555 | 32 | 202 | 4.8 | 12.9 | 0.00 | 0.00 | 0.00 | 55 | 1011.7 |
| 20260906011049 | 33 | 133 | 4.8 | 8.0 | 0.00 | 0.00 | 0.00 | 54 | 1011.7 |
| 20260906010545 | 33 | 185 | 1.6 | 4.8 | 0.00 | 0.00 | 0.00 | 53 | 1011.4 |
| 20260906010041 | 33 | 203 | 3.2 | 8.0 | 0.00 | 0.00 | 0.00 | 52 | 1011.4 |
| 20260906005540 | 33 | 119 | 6.4 | 6.4 | 0.00 | 0.00 | 0.00 | 51 | 1011.4 |
| 20260906005038 | 34 | 17 | 4.8 | 9.7 | 0.00 | 0.00 | 0.00 | 51 | 1011.3 |
| 20260906004538 | 34 | 136 | 4.8 | 11.3 | 0.00 | 0.00 | 0.00 | 49 | 1011.2 |
| 20260906004033 | 35 | 143 | 3.2 | 12.9 | 0.00 | 0.00 | 0.00 | 48 | 1011.2 |
| 20260906003529 | 35 | 305 | 3.2 | 8.0 | 0.00 | 0.00 | 0.00 | 45 | 1011.0 |
| 20260906003025 | 35 | 208 | 0.0 | 8.0 | 0.00 | 0.00 | 0.00 | 45 | 1010.9 |
| 20260906002525 | 35 | 48 | 0.0 | 6.4 | 0.00 | 0.00 | 0.00 | 44 | 1011.2 |
| 20260906002019 | 36 | 98 | 4.8 | 9.7 | 0.00 | 0.00 | 0.00 | 44 | 1011.2 |
| 20260906001515 | 36 | 198 | 1.6 | 4.8 | 0.00 | 0.00 | 0.00 | 43 | 1011.3 |
| 20260906001010 | 36 | 233 | 3.2 | 6.4 | 0.00 | 0.00 | 0.00 | 43 | 1011.2 |
| 20260906000506 | 36 | 256 | 1.6 | 4.8 | 0.00 | 0.00 | 0.00 | 42 | 1011.2 |
| 20260906000006 | 37 | 269 | 0.0 | 4.8 | 0.00 | 0.00 | 0.00 | 41 | 1011.1 |
| 20260905235459 | 37 | 56 | 3.2 | 4.8 | 0.00 | 0.00 | 0.00 | 41 | 1011.0 |
| 20260905234955 | 37 | 195 | 1.6 | 4.8 | 0.00 | 0.00 | 0.00 | 41 | 1011.1 |
| 20260905234450 | 36 | 303 | 3.2 | 4.8 | 0.00 | 0.00 | 0.00 | 42 | 1011.0 |
| 20260905233950 | 37 | 113 | 4.8 | 4.8 | 0.00 | 0.00 | 0.00 | 41 | 1010.7 |
| 20260905233446 | 36 | 120 | 3.2 | 9.7 | 0.00 | 0.00 | 0.00 | 42 | 1010.9 |
| 20260905232944 | 36 | 118 | 4.8 | 8.0 | 0.00 | 0.00 | 0.00 | 42 | 1011.0 |
| 20260905232441 | 37 | 123 | 1.6 | 3.2 | 0.00 | 0.00 | 0.00 | 40 | 1011.2 |
| 20260905231936 | 37 | 110 | 4.8 | 8.0 | 0.00 | 0.00 | 0.00 | 40 | 1011.0 |
| 20260905231432 | 37 | 49 | 3.2 | 8.0 | 0.00 | 0.00 | 0.00 | 41 | 1011.0 |
| 20260905230928 | 37 | 119 | 3.2 | 8.0 | 0.00 | 0.00 | 0.00 | 41 | 1010.8 |
| 20260905230426 | 37 | 77 | 0.0 | 8.0 | 0.00 | 0.00 | 0.00 | 41 | 1011.2 |